sensor_id;sensor_type;location;lat;lon;timestamp;pressure;altitude;pressure_sealevel;temperature;humidity
9822;BME280;4950;46.042;14.472;2023-05-19T00:00:43;98492.81;;;13.37;78.40
9822;BME280;4950;46.042;14.472;2023-05-19T00:03:10;98487.97;;;13.34;78.48
9822;BME280;4950;46.042;14.472;2023-05-19T00:05:41;98485.81;;;13.38;78.26
9822;BME280;4950;46.042;14.472;2023-05-19T00:08:10;98487.16;;;13.34;78.19
9822;BME280;4950;46.042;14.472;2023-05-19T00:10:37;98496.13;;;13.31;78.85
9822;BME280;4950;46.042;14.472;2023-05-19T00:13:05;98490.56;;;13.34;78.44
9822;BME280;4950;46.042;14.472;2023-05-19T00:15:32;98493.00;;;13.36;78.54
9822;BME280;4950;46.042;14.472;2023-05-19T00:17:58;98488.19;;;13.48;77.45
9822;BME280;4950;46.042;14.472;2023-05-19T00:20:25;98493.00;;;13.36;78.28
9822;BME280;4950;46.042;14.472;2023-05-19T00:22:53;98493.88;;;13.28;78.53
9822;BME280;4950;46.042;14.472;2023-05-19T00:25:20;98485.19;;;13.36;78.23
9822;BME280;4950;46.042;14.472;2023-05-19T00:27:46;98486.50;;;13.32;78.24
9822;BME280;4950;46.042;14.472;2023-05-19T00:30:13;98483.00;;;13.39;77.72
9822;BME280;4950;46.042;14.472;2023-05-19T00:32:40;98477.38;;;13.36;78.26
9822;BME280;4950;46.042;14.472;2023-05-19T00:35:07;98476.81;;;13.17;78.54
9822;BME280;4950;46.042;14.472;2023-05-19T00:37:34;98478.00;;;13.15;78.98
9822;BME280;4950;46.042;14.472;2023-05-19T00:40:02;98483.94;;;13.23;78.70
9822;BME280;4950;46.042;14.472;2023-05-19T00:42:30;98485.19;;;13.13;79.55
9822;BME280;4950;46.042;14.472;2023-05-19T00:44:57;98484.50;;;12.96;80.36
9822;BME280;4950;46.042;14.472;2023-05-19T00:47:24;98483.06;;;12.93;80.71
9822;BME280;4950;46.042;14.472;2023-05-19T00:49:50;98479.44;;;12.94;80.34
9822;BME280;4950;46.042;14.472;2023-05-19T00:52:17;98486.63;;;12.92;80.81
9822;BME280;4950;46.042;14.472;2023-05-19T00:54:44;98482.75;;;12.88;81.21
9822;BME280;4950;46.042;14.472;2023-05-19T00:57:13;98482.97;;;13.01;80.65
9822;BME280;4950;46.042;14.472;2023-05-19T00:59:40;98477.31;;;12.98;80.43
9822;BME280;4950;46.042;14.472;2023-05-19T01:02:06;98486.94;;;12.97;80.68
9822;BME280;4950;46.042;14.472;2023-05-19T01:04:35;98484.88;;;13.08;80.65
9822;BME280;4950;46.042;14.472;2023-05-19T01:07:04;98483.16;;;13.00;80.65
9822;BME280;4950;46.042;14.472;2023-05-19T01:09:30;98483.31;;;12.98;80.28
9822;BME280;4950;46.042;14.472;2023-05-19T01:11:57;98485.03;;;12.91;81.26
9822;BME280;4950;46.042;14.472;2023-05-19T01:14:27;98488.31;;;12.85;81.32
9822;BME280;4950;46.042;14.472;2023-05-19T01:16:58;98478.78;;;12.77;82.05
9822;BME280;4950;46.042;14.472;2023-05-19T01:19:49;98484.47;;;12.73;82.23
9822;BME280;4950;46.042;14.472;2023-05-19T01:22:36;98489.19;;;12.77;82.06
9822;BME280;4950;46.042;14.472;2023-05-19T01:25:35;98485.94;;;12.75;82.23
9822;BME280;4950;46.042;14.472;2023-05-19T01:31:14;98490.06;;;12.70;82.82
9822;BME280;4950;46.042;14.472;2023-05-19T01:33:43;98489.69;;;12.73;82.76
9822;BME280;4950;46.042;14.472;2023-05-19T01:36:11;98486.28;;;12.72;82.46
9822;BME280;4950;46.042;14.472;2023-05-19T01:38:39;98488.41;;;12.69;82.69
9822;BME280;4950;46.042;14.472;2023-05-19T01:41:06;98483.59;;;12.57;83.98
9822;BME280;4950;46.042;14.472;2023-05-19T01:43:34;98488.81;;;12.57;83.55
9822;BME280;4950;46.042;14.472;2023-05-19T01:46:01;98482.78;;;12.57;83.95
9822;BME280;4950;46.042;14.472;2023-05-19T01:48:30;98484.06;;;12.61;83.17
9822;BME280;4950;46.042;14.472;2023-05-19T01:50:57;98486.38;;;12.56;84.16
9822;BME280;4950;46.042;14.472;2023-05-19T01:53:24;98481.56;;;12.44;84.58
9822;BME280;4950;46.042;14.472;2023-05-19T01:55:53;98472.06;;;12.52;84.73
9822;BME280;4950;46.042;14.472;2023-05-19T01:58:30;98472.25;;;12.50;84.62
9822;BME280;4950;46.042;14.472;2023-05-19T02:01:06;98471.09;;;12.53;84.41
9822;BME280;4950;46.042;14.472;2023-05-19T02:03:46;98478.97;;;12.44;84.73
9822;BME280;4950;46.042;14.472;2023-05-19T02:06:24;98472.25;;;12.50;85.02
9822;BME280;4950;46.042;14.472;2023-05-19T02:08:56;98473.38;;;12.56;84.74
9822;BME280;4950;46.042;14.472;2023-05-19T02:11:30;98477.88;;;12.62;84.41
9822;BME280;4950;46.042;14.472;2023-05-19T02:14:02;98477.41;;;12.58;84.41
9822;BME280;4950;46.042;14.472;2023-05-19T02:16:32;98479.31;;;12.64;84.14
9822;BME280;4950;46.042;14.472;2023-05-19T02:19:02;98475.28;;;12.62;84.06
9822;BME280;4950;46.042;14.472;2023-05-19T02:21:28;98478.06;;;12.60;84.39
9822;BME280;4950;46.042;14.472;2023-05-19T02:23:55;98474.44;;;12.61;84.60
9822;BME280;4950;46.042;14.472;2023-05-19T02:26:22;98470.06;;;12.62;84.21
9822;BME280;4950;46.042;14.472;2023-05-19T02:28:48;98467.28;;;12.63;84.64
9822;BME280;4950;46.042;14.472;2023-05-19T02:31:15;98476.38;;;12.68;84.42
9822;BME280;4950;46.042;14.472;2023-05-19T02:33:41;98469.22;;;12.70;84.35
9822;BME280;4950;46.042;14.472;2023-05-19T02:36:09;98470.31;;;12.75;84.09
9822;BME280;4950;46.042;14.472;2023-05-19T02:38:38;98465.22;;;12.82;83.99
9822;BME280;4950;46.042;14.472;2023-05-19T02:41:05;98470.41;;;12.82;83.88
9822;BME280;4950;46.042;14.472;2023-05-19T02:43:31;98461.81;;;12.81;83.88
9822;BME280;4950;46.042;14.472;2023-05-19T02:46:01;98473.03;;;12.82;84.19
9822;BME280;4950;46.042;14.472;2023-05-19T02:48:28;98461.16;;;12.79;83.92
9822;BME280;4950;46.042;14.472;2023-05-19T02:50:54;98468.78;;;12.81;84.16
9822;BME280;4950;46.042;14.472;2023-05-19T02:53:23;98468.34;;;12.77;84.35
9822;BME280;4950;46.042;14.472;2023-05-19T02:55:49;98461.34;;;12.78;83.96
9822;BME280;4950;46.042;14.472;2023-05-19T02:58:16;98456.47;;;12.75;84.79
9822;BME280;4950;46.042;14.472;2023-05-19T03:00:45;98448.63;;;12.75;84.64
9822;BME280;4950;46.042;14.472;2023-05-19T03:03:11;98458.09;;;12.76;84.60
9822;BME280;4950;46.042;14.472;2023-05-19T03:05:38;98452.50;;;12.79;84.28
9822;BME280;4950;46.042;14.472;2023-05-19T03:08:06;98449.41;;;12.83;84.41
9822;BME280;4950;46.042;14.472;2023-05-19T03:10:34;98449.50;;;12.90;84.19
9822;BME280;4950;46.042;14.472;2023-05-19T03:13:00;98456.53;;;12.90;84.01
9822;BME280;4950;46.042;14.472;2023-05-19T03:15:27;98457.50;;;12.89;83.55
9822;BME280;4950;46.042;14.472;2023-05-19T03:17:53;98461.16;;;12.79;84.66
9822;BME280;4950;46.042;14.472;2023-05-19T03:20:20;98468.78;;;12.81;84.60
9822;BME280;4950;46.042;14.472;2023-05-19T03:22:47;98466.31;;;12.88;84.63
9822;BME280;4950;46.042;14.472;2023-05-19T03:25:14;98466.31;;;12.88;84.20
9822;BME280;4950;46.042;14.472;2023-05-19T03:27:42;98465.75;;;12.77;84.31
9822;BME280;4950;46.042;14.472;2023-05-19T03:30:09;98474.41;;;12.70;85.25
9822;BME280;4950;46.042;14.472;2023-05-19T03:32:36;98479.00;;;12.68;85.20
9822;BME280;4950;46.042;14.472;2023-05-19T03:35:03;98470.00;;;12.70;85.56
9822;BME280;4950;46.042;14.472;2023-05-19T03:37:30;98465.66;;;12.62;85.65
9822;BME280;4950;46.042;14.472;2023-05-19T03:39:57;98464.38;;;12.58;86.19
9822;BME280;4950;46.042;14.472;2023-05-19T03:42:24;98466.28;;;12.64;86.02
9822;BME280;4950;46.042;14.472;2023-05-19T03:44:52;98462.72;;;12.66;86.05
9822;BME280;4950;46.042;14.472;2023-05-19T03:47:19;98465.66;;;12.62;86.10
9822;BME280;4950;46.042;14.472;2023-05-19T03:49:45;98467.53;;;12.54;86.64
9822;BME280;4950;46.042;14.472;2023-05-19T03:52:12;98473.22;;;12.49;87.21
9822;BME280;4950;46.042;14.472;2023-05-19T03:54:39;98479.28;;;12.41;87.19
9822;BME280;4950;46.042;14.472;2023-05-19T03:57:07;98468.97;;;12.25;88.64
9822;BME280;4950;46.042;14.472;2023-05-19T03:59:34;98472.41;;;12.17;89.55
9822;BME280;4950;46.042;14.472;2023-05-19T04:02:03;98467.22;;;12.17;90.05
9822;BME280;4950;46.042;14.472;2023-05-19T04:04:29;98466.38;;;12.25;89.84
9822;BME280;4950;46.042;14.472;2023-05-19T04:06:56;98466.84;;;12.29;89.67
9822;BME280;4950;46.042;14.472;2023-05-19T04:09:23;98475.88;;;12.41;88.72
9822;BME280;4950;46.042;14.472;2023-05-19T04:11:49;98469.88;;;12.32;88.90
9822;BME280;4950;46.042;14.472;2023-05-19T04:14:16;98472.03;;;12.29;89.60
9822;BME280;4950;46.042;14.472;2023-05-19T04:16:44;98476.09;;;12.31;89.24
9822;BME280;4950;46.042;14.472;2023-05-19T04:19:12;98469.09;;;12.32;89.57
9822;BME280;4950;46.042;14.472;2023-05-19T04:21:38;98475.06;;;12.40;89.09
9822;BME280;4950;46.042;14.472;2023-05-19T04:24:05;98475.97;;;12.56;88.47
9822;BME280;4950;46.042;14.472;2023-05-19T04:26:32;98474.38;;;12.47;88.85
9822;BME280;4950;46.042;14.472;2023-05-19T04:28:59;98476.53;;;12.43;89.17
9822;BME280;4950;46.042;14.472;2023-05-19T04:31:28;98477.47;;;12.50;88.97
9822;BME280;4950;46.042;14.472;2023-05-19T04:33:55;98478.16;;;12.44;88.56
9822;BME280;4950;46.042;14.472;2023-05-19T04:36:23;98479.44;;;12.40;89.25
9822;BME280;4950;46.042;14.472;2023-05-19T04:38:49;98478.66;;;12.39;89.92
9822;BME280;4950;46.042;14.472;2023-05-19T04:41:19;98475.94;;;12.33;90.01
9822;BME280;4950;46.042;14.472;2023-05-19T04:43:46;98480.19;;;12.25;90.32
9822;BME280;4950;46.042;14.472;2023-05-19T04:46:14;98480.03;;;12.27;90.64
9822;BME280;4950;46.042;14.472;2023-05-19T04:48:40;98485.38;;;12.25;90.58
9822;BME280;4950;46.042;14.472;2023-05-19T04:51:07;98481.47;;;12.30;90.52
9822;BME280;4950;46.042;14.472;2023-05-19T04:53:35;98481.47;;;12.30;90.52
9822;BME280;4950;46.042;14.472;2023-05-19T04:56:04;98481.19;;;12.24;90.36
9822;BME280;4950;46.042;14.472;2023-05-19T04:58:31;98483.56;;;12.34;90.35
9822;BME280;4950;46.042;14.472;2023-05-19T05:00:58;98485.69;;;12.31;89.65
9822;BME280;4950;46.042;14.472;2023-05-19T05:03:25;98484.88;;;12.30;90.02
9822;BME280;4950;46.042;14.472;2023-05-19T05:05:51;98488.16;;;12.24;90.35
9822;BME280;4950;46.042;14.472;2023-05-19T05:08:19;98488.47;;;12.29;90.03
9822;BME280;4950;46.042;14.472;2023-05-19T05:10:50;98486.53;;;12.23;90.35
9822;BME280;4950;46.042;14.472;2023-05-19T05:13:17;98485.56;;;12.24;90.39
9822;BME280;4950;46.042;14.472;2023-05-19T05:15:44;98491.91;;;12.21;90.32
9822;BME280;4950;46.042;14.472;2023-05-19T05:18:11;98500.06;;;12.18;90.91
9822;BME280;4950;46.042;14.472;2023-05-19T05:20:39;98492.91;;;12.12;90.83
9822;BME280;4950;46.042;14.472;2023-05-19T05:23:07;98493.44;;;12.08;91.54
9822;BME280;4950;46.042;14.472;2023-05-19T05:25:34;98499.28;;;12.10;91.64
9822;BME280;4950;46.042;14.472;2023-05-19T05:28:03;98499.59;;;12.15;91.27
9822;BME280;4950;46.042;14.472;2023-05-19T05:30:30;98506.56;;;12.22;90.77
9822;BME280;4950;46.042;14.472;2023-05-19T05:32:57;98496.16;;;12.22;91.25
9822;BME280;4950;46.042;14.472;2023-05-19T05:35:23;98506.72;;;12.21;91.56
9822;BME280;4950;46.042;14.472;2023-05-19T05:37:50;98502.97;;;12.23;90.50
9822;BME280;4950;46.042;14.472;2023-05-19T05:40:17;98503.66;;;12.17;90.75
9822;BME280;4950;46.042;14.472;2023-05-19T05:42:44;98504.16;;;12.13;91.01
9822;BME280;4950;46.042;14.472;2023-05-19T05:45:12;98506.56;;;12.22;90.79
9822;BME280;4950;46.042;14.472;2023-05-19T05:47:39;98508.84;;;12.17;91.02
9822;BME280;4950;46.042;14.472;2023-05-19T05:50:09;98514.22;;;12.16;91.59
9822;BME280;4950;46.042;14.472;2023-05-19T05:52:36;98511.78;;;12.14;90.83
9822;BME280;4950;46.042;14.472;2023-05-19T05:55:05;98510.34;;;12.12;90.66
9822;BME280;4950;46.042;14.472;2023-05-19T05:57:32;98516.97;;;12.14;91.06
9822;BME280;4950;46.042;14.472;2023-05-19T06:00:00;98524.31;;;12.19;91.34
9822;BME280;4950;46.042;14.472;2023-05-19T06:02:31;98517.09;;;12.29;90.13
9822;BME280;4950;46.042;14.472;2023-05-19T06:04:58;98516.63;;;12.25;90.61
9822;BME280;4950;46.042;14.472;2023-05-19T06:07:24;98523.59;;;12.33;89.75
9822;BME280;4950;46.042;14.472;2023-05-19T06:09:51;98523.59;;;12.33;89.21
9822;BME280;4950;46.042;14.472;2023-05-19T06:12:18;98526.03;;;12.35;88.89
9822;BME280;4950;46.042;14.472;2023-05-19T06:14:44;98525.41;;;12.33;88.93
9822;BME280;4950;46.042;14.472;2023-05-19T06:17:11;98525.41;;;12.33;89.02
9822;BME280;4950;46.042;14.472;2023-05-19T06:19:39;98520.22;;;12.24;89.45
9822;BME280;4950;46.042;14.472;2023-05-19T06:22:06;98530.28;;;12.28;90.33
9822;BME280;4950;46.042;14.472;2023-05-19T06:24:32;98532.09;;;12.27;90.11
9822;BME280;4950;46.042;14.472;2023-05-19T06:26:59;98536.28;;;12.36;89.50
9822;BME280;4950;46.042;14.472;2023-05-19T06:29:25;98526.97;;;12.42;89.72
9822;BME280;4950;46.042;14.472;2023-05-19T06:31:52;98538.09;;;12.28;90.33
9822;BME280;4950;46.042;14.472;2023-05-19T06:34:18;98549.19;;;12.21;91.11
9822;BME280;4950;46.042;14.472;2023-05-19T06:36:46;98540.88;;;12.18;91.06
9822;BME280;4950;46.042;14.472;2023-05-19T06:39:13;98547.91;;;12.17;91.60
9822;BME280;4950;46.042;14.472;2023-05-19T06:41:39;98549.50;;;12.27;92.08
9822;BME280;4950;46.042;14.472;2023-05-19T06:44:06;98549.19;;;12.21;91.54
9822;BME280;4950;46.042;14.472;2023-05-19T06:46:33;98550.16;;;12.20;91.80
9822;BME280;4950;46.042;14.472;2023-05-19T06:49:00;98547.88;;;12.25;91.77
9822;BME280;4950;46.042;14.472;2023-05-19T06:51:27;98549.16;;;12.30;91.98
9822;BME280;4950;46.042;14.472;2023-05-19T06:53:54;98547.81;;;12.34;90.79
9822;BME280;4950;46.042;14.472;2023-05-19T06:56:21;98540.66;;;12.36;90.31
9822;BME280;4950;46.042;14.472;2023-05-19T06:58:48;98541.19;;;12.31;90.87
9822;BME280;4950;46.042;14.472;2023-05-19T07:01:14;98535.66;;;12.26;91.05
9822;BME280;4950;46.042;14.472;2023-05-19T07:03:41;98539.41;;;12.23;91.86
9822;BME280;4950;46.042;14.472;2023-05-19T07:06:08;98544.09;;;12.36;91.82
9822;BME280;4950;46.042;14.472;2023-05-19T07:08:34;98540.66;;;12.44;90.78
9822;BME280;4950;46.042;14.472;2023-05-19T07:11:03;98539.13;;;12.50;89.89
9822;BME280;4950;46.042;14.472;2023-05-19T07:13:30;98545.03;;;12.43;90.25
9822;BME280;4950;46.042;14.472;2023-05-19T07:15:57;98543.91;;;12.46;90.16
9822;BME280;4950;46.042;14.472;2023-05-19T07:18:24;98534.44;;;12.45;90.53
9822;BME280;4950;46.042;14.472;2023-05-19T07:20:50;98534.59;;;12.43;90.57
9822;BME280;4950;46.042;14.472;2023-05-19T07:23:17;98536.53;;;12.50;90.55
9822;BME280;4950;46.042;14.472;2023-05-19T07:25:43;98531.63;;;12.55;90.29
9822;BME280;4950;46.042;14.472;2023-05-19T07:28:11;98537.28;;;12.67;88.79
9822;BME280;4950;46.042;14.472;2023-05-19T07:30:38;98538.44;;;12.64;89.01
9822;BME280;4950;46.042;14.472;2023-05-19T07:33:05;98531.09;;;12.68;89.79
9822;BME280;4950;46.042;14.472;2023-05-19T07:35:32;98530.41;;;12.74;89.73
9822;BME280;4950;46.042;14.472;2023-05-19T07:37:59;98524.16;;;12.83;89.51
9822;BME280;4950;46.042;14.472;2023-05-19T07:40:26;98520.81;;;12.97;87.72
9822;BME280;4950;46.042;14.472;2023-05-19T07:42:53;98528.47;;;12.99;88.46
9822;BME280;4950;46.042;14.472;2023-05-19T07:45:21;98520.63;;;12.99;88.28
9822;BME280;4950;46.042;14.472;2023-05-19T07:47:47;98517.19;;;12.98;88.97
9822;BME280;4950;46.042;14.472;2023-05-19T07:50:14;98515.88;;;13.02;88.74
9822;BME280;4950;46.042;14.472;2023-05-19T07:52:40;98518.25;;;13.12;88.30
9822;BME280;4950;46.042;14.472;2023-05-19T07:55:07;98515.84;;;13.11;88.06
9822;BME280;4950;46.042;14.472;2023-05-19T07:57:34;98512.69;;;13.15;87.43
9822;BME280;4950;46.042;14.472;2023-05-19T08:00:00;98515.22;;;13.23;86.81
9822;BME280;4950;46.042;14.472;2023-05-19T08:02:29;98516.66;;;13.34;83.03
9822;BME280;4950;46.042;14.472;2023-05-19T08:04:55;98516.88;;;13.48;80.87
9822;BME280;4950;46.042;14.472;2023-05-19T08:07:23;98518.38;;;13.42;80.67
9822;BME280;4950;46.042;14.472;2023-05-19T08:09:49;98521.25;;;13.47;79.91
9822;BME280;4950;46.042;14.472;2023-05-19T08:12:16;98519.09;;;13.51;79.61
9822;BME280;4950;46.042;14.472;2023-05-19T08:14:43;98517.84;;;13.47;79.53
9822;BME280;4950;46.042;14.472;2023-05-19T08:17:10;98514.53;;;13.53;79.81
9822;BME280;4950;46.042;14.472;2023-05-19T08:19:38;98508.97;;;13.56;78.74
9822;BME280;4950;46.042;14.472;2023-05-19T08:22:04;98520.03;;;13.58;78.23
9822;BME280;4950;46.042;14.472;2023-05-19T08:24:31;98510.50;;;13.65;77.52
9822;BME280;4950;46.042;14.472;2023-05-19T08:26:58;98513.94;;;13.66;77.88
9822;BME280;4950;46.042;14.472;2023-05-19T08:29:24;98507.34;;;13.70;78.23
9822;BME280;4950;46.042;14.472;2023-05-19T08:31:51;98522.56;;;13.66;78.44
9822;BME280;4950;46.042;14.472;2023-05-19T08:34:18;98515.19;;;13.70;77.76
9822;BME280;4950;46.042;14.472;2023-05-19T08:36:46;98509.88;;;13.78;77.91
9822;BME280;4950;46.042;14.472;2023-05-19T08:39:12;98515.84;;;13.87;78.01
9822;BME280;4950;46.042;14.472;2023-05-19T08:41:40;98515.84;;;13.87;77.14
9822;BME280;4950;46.042;14.472;2023-05-19T08:44:07;98515.84;;;13.87;77.52
9822;BME280;4950;46.042;14.472;2023-05-19T08:46:34;98515.81;;;14.01;77.01
9822;BME280;4950;46.042;14.472;2023-05-19T08:49:06;98505.75;;;13.98;77.00
9822;BME280;4950;46.042;14.472;2023-05-19T08:51:43;98498.81;;;14.06;76.94
9822;BME280;4950;46.042;14.472;2023-05-19T08:54:15;98502.41;;;14.19;76.74
9822;BME280;4950;46.042;14.472;2023-05-19T08:56:42;98506.91;;;14.26;76.63
9822;BME280;4950;46.042;14.472;2023-05-19T08:59:11;98508.19;;;14.30;75.37
9822;BME280;4950;46.042;14.472;2023-05-19T09:01:39;98507.44;;;14.36;75.56
9822;BME280;4950;46.042;14.472;2023-05-19T09:04:06;98514.19;;;14.45;75.04
9822;BME280;4950;46.042;14.472;2023-05-19T09:06:34;98509.03;;;14.52;75.02
9822;BME280;4950;46.042;14.472;2023-05-19T09:09:00;98507.13;;;14.60;74.80
9822;BME280;4950;46.042;14.472;2023-05-19T09:11:28;98510.47;;;14.69;74.06
9822;BME280;4950;46.042;14.472;2023-05-19T09:13:55;98515.50;;;14.71;74.13
9822;BME280;4950;46.042;14.472;2023-05-19T09:16:21;98515.50;;;14.71;74.04
9822;BME280;4950;46.042;14.472;2023-05-19T09:18:55;98508.91;;;14.75;73.26
9822;BME280;4950;46.042;14.472;2023-05-19T09:21:26;98509.34;;;14.78;72.59
9822;BME280;4950;46.042;14.472;2023-05-19T09:23:55;98511.34;;;14.76;73.29
9822;BME280;4950;46.042;14.472;2023-05-19T09:26:22;98515.84;;;14.83;72.56
9822;BME280;4950;46.042;14.472;2023-05-19T09:28:50;98511.84;;;14.87;72.65
9822;BME280;4950;46.042;14.472;2023-05-19T09:31:16;98508.22;;;14.88;73.18
9822;BME280;4950;46.042;14.472;2023-05-19T09:33:43;98503.63;;;14.90;72.70
9822;BME280;4950;46.042;14.472;2023-05-19T09:36:10;98507.06;;;14.90;72.28
9822;BME280;4950;46.042;14.472;2023-05-19T09:38:37;98512.34;;;14.97;72.34
9822;BME280;4950;46.042;14.472;2023-05-19T09:41:06;98504.31;;;14.98;72.32
9822;BME280;4950;46.042;14.472;2023-05-19T09:43:33;98508.19;;;15.03;72.90
9822;BME280;4950;46.042;14.472;2023-05-19T09:46:04;98494.91;;;15.04;73.09
9822;BME280;4950;46.042;14.472;2023-05-19T09:48:31;98489.91;;;15.09;73.22
9822;BME280;4950;46.042;14.472;2023-05-19T09:50:59;98490.97;;;15.15;72.72
9822;BME280;4950;46.042;14.472;2023-05-19T09:53:28;98487.59;;;15.21;72.38
9822;BME280;4950;46.042;14.472;2023-05-19T09:56:00;98491.53;;;15.32;71.16
9822;BME280;4950;46.042;14.472;2023-05-19T09:58:30;98485.28;;;15.33;70.90
9822;BME280;4950;46.042;14.472;2023-05-19T10:00:59;98484.34;;;15.40;70.48
9822;BME280;4950;46.042;14.472;2023-05-19T10:03:28;98477.72;;;15.45;70.68
9822;BME280;4950;46.042;14.472;2023-05-19T10:05:57;98484.41;;;15.47;70.39
9822;BME280;4950;46.042;14.472;2023-05-19T10:08:26;98474.16;;;15.52;69.94
9822;BME280;4950;46.042;14.472;2023-05-19T10:10:54;98476.41;;;15.55;70.17
9822;BME280;4950;46.042;14.472;2023-05-19T10:13:22;98478.44;;;15.60;69.61
9822;BME280;4950;46.042;14.472;2023-05-19T10:15:49;98479.66;;;15.64;69.59
9822;BME280;4950;46.042;14.472;2023-05-19T10:18:18;98483.31;;;15.70;69.57
9822;BME280;4950;46.042;14.472;2023-05-19T10:20:47;98482.97;;;15.73;69.72
9822;BME280;4950;46.042;14.472;2023-05-19T10:23:15;98482.63;;;15.76;69.05
9822;BME280;4950;46.042;14.472;2023-05-19T10:25:43;98482.81;;;15.81;68.47
9822;BME280;4950;46.042;14.472;2023-05-19T10:28:13;98483.69;;;15.88;68.07
9822;BME280;4950;46.042;14.472;2023-05-19T10:30:44;98482.75;;;16.03;66.21
9822;BME280;4950;46.042;14.472;2023-05-19T10:33:14;98491.22;;;16.05;67.01
9822;BME280;4950;46.042;14.472;2023-05-19T10:36:01;98484.22;;;15.77;69.85
9822;BME280;4950;46.042;14.472;2023-05-19T10:38:39;98477.09;;;15.71;70.32
9822;BME280;4950;46.042;14.472;2023-05-19T10:41:11;98480.16;;;15.46;71.87
9822;BME280;4950;46.042;14.472;2023-05-19T10:43:48;98479.50;;;15.37;70.94
9822;BME280;4950;46.042;14.472;2023-05-19T10:46:22;98474.63;;;15.34;71.79
9822;BME280;4950;46.042;14.472;2023-05-19T10:48:50;98473.75;;;15.49;71.81
9822;BME280;4950;46.042;14.472;2023-05-19T10:51:19;98469.34;;;15.56;71.98
9822;BME280;4950;46.042;14.472;2023-05-19T10:53:45;98473.81;;;15.62;71.23
9822;BME280;4950;46.042;14.472;2023-05-19T10:56:26;98471.50;;;15.74;70.11
9822;BME280;4950;46.042;14.472;2023-05-19T10:58:55;98469.59;;;15.61;71.08
9822;BME280;4950;46.042;14.472;2023-05-19T11:01:21;98463.75;;;15.59;71.53
9822;BME280;4950;46.042;14.472;2023-05-19T11:03:55;98461.75;;;15.61;71.69
9822;BME280;4950;46.042;14.472;2023-05-19T11:06:27;98456.97;;;15.71;73.25
9822;BME280;4950;46.042;14.472;2023-05-19T11:08:56;98457.25;;;15.83;70.57
9822;BME280;4950;46.042;14.472;2023-05-19T11:11:25;98460.81;;;16.04;67.58
9822;BME280;4950;46.042;14.472;2023-05-19T11:13:54;98454.00;;;16.16;65.99
9822;BME280;4950;46.042;14.472;2023-05-19T11:16:26;98453.63;;;16.26;64.83
9822;BME280;4950;46.042;14.472;2023-05-19T11:18:54;98447.53;;;16.18;64.96
9822;BME280;4950;46.042;14.472;2023-05-19T11:21:21;98451.00;;;16.26;65.39
9822;BME280;4950;46.042;14.472;2023-05-19T11:23:49;98445.16;;;16.17;65.08
9822;BME280;4950;46.042;14.472;2023-05-19T11:26:39;98442.72;;;16.15;65.00
9822;BME280;4950;46.042;14.472;2023-05-19T11:29:06;98445.09;;;16.10;66.71
9822;BME280;4950;46.042;14.472;2023-05-19T11:31:34;98445.34;;;16.15;66.71
9822;BME280;4950;46.042;14.472;2023-05-19T11:34:02;98445.53;;;16.21;67.12
9822;BME280;4950;46.042;14.472;2023-05-19T11:36:30;98450.38;;;16.17;67.10
9822;BME280;4950;46.042;14.472;2023-05-19T11:39:00;98437.44;;;16.09;67.76
9822;BME280;4950;46.042;14.472;2023-05-19T11:41:27;98442.41;;;15.97;68.53
9822;BME280;4950;46.042;14.472;2023-05-19T11:43:55;98435.69;;;15.81;68.94
9822;BME280;4950;46.042;14.472;2023-05-19T11:46:21;98422.44;;;15.89;68.56
9822;BME280;4950;46.042;14.472;2023-05-19T11:48:48;98422.00;;;15.79;68.82
9822;BME280;4950;46.042;14.472;2023-05-19T11:51:15;98419.56;;;15.77;69.16
9822;BME280;4950;46.042;14.472;2023-05-19T11:53:42;98417.56;;;15.79;69.15
9822;BME280;4950;46.042;14.472;2023-05-19T11:56:11;98414.75;;;15.81;69.75
9822;BME280;4950;46.042;14.472;2023-05-19T11:58:39;98415.78;;;15.87;70.21
9822;BME280;4950;46.042;14.472;2023-05-19T12:01:06;98411.22;;;16.02;68.36
9822;BME280;4950;46.042;14.472;2023-05-19T12:03:34;98411.88;;;16.17;67.56
9822;BME280;4950;46.042;14.472;2023-05-19T12:06:02;98409.69;;;16.28;68.01
9822;BME280;4950;46.042;14.472;2023-05-19T12:08:30;98403.69;;;16.41;65.55
9822;BME280;4950;46.042;14.472;2023-05-19T12:10:56;98402.44;;;16.30;66.09
9822;BME280;4950;46.042;14.472;2023-05-19T12:13:24;98402.84;;;16.27;67.15
9822;BME280;4950;46.042;14.472;2023-05-19T12:15:51;98387.31;;;16.32;67.69
9822;BME280;4950;46.042;14.472;2023-05-19T12:18:18;98399.63;;;16.31;67.83
9822;BME280;4950;46.042;14.472;2023-05-19T12:20:45;98403.66;;;16.34;67.07
9822;BME280;4950;46.042;14.472;2023-05-19T12:23:12;98395.38;;;16.30;65.90
9822;BME280;4950;46.042;14.472;2023-05-19T12:25:39;98396.22;;;16.37;65.63
9822;BME280;4950;46.042;14.472;2023-05-19T12:28:05;98393.59;;;16.37;65.55
9822;BME280;4950;46.042;14.472;2023-05-19T12:30:34;98395.38;;;16.30;65.68
9822;BME280;4950;46.042;14.472;2023-05-19T12:33:00;98396.41;;;16.36;65.42
9822;BME280;4950;46.042;14.472;2023-05-19T12:35:28;98395.78;;;16.34;66.06
9822;BME280;4950;46.042;14.472;2023-05-19T12:37:54;98396.22;;;16.31;66.12
9822;BME280;4950;46.042;14.472;2023-05-19T12:40:22;98399.81;;;16.36;65.93
9822;BME280;4950;46.042;14.472;2023-05-19T12:42:50;98385.31;;;16.34;67.46
9822;BME280;4950;46.042;14.472;2023-05-19T12:45:22;98384.09;;;16.36;68.49
9822;BME280;4950;46.042;14.472;2023-05-19T12:47:51;98390.38;;;16.35;68.70
9822;BME280;4950;46.042;14.472;2023-05-19T12:50:18;98386.72;;;16.36;69.02
9822;BME280;4950;46.042;14.472;2023-05-19T12:52:45;98379.50;;;16.38;68.38
9822;BME280;4950;46.042;14.472;2023-05-19T12:55:13;98374.66;;;16.35;66.91
9822;BME280;4950;46.042;14.472;2023-05-19T12:57:42;98373.44;;;16.31;64.69
9822;BME280;4950;46.042;14.472;2023-05-19T13:00:13;98375.03;;;16.32;64.76
9822;BME280;4950;46.042;14.472;2023-05-19T13:02:57;98380.28;;;16.32;65.17
9822;BME280;4950;46.042;14.472;2023-05-19T13:05:24;98373.41;;;16.25;64.54
9822;BME280;4950;46.042;14.472;2023-05-19T13:07:55;98384.91;;;16.24;65.00
9822;BME280;4950;46.042;14.472;2023-05-19T13:10:22;98385.09;;;16.15;64.54
9822;BME280;4950;46.042;14.472;2023-05-19T13:12:51;98387.28;;;16.12;64.80
9822;BME280;4950;46.042;14.472;2023-05-19T13:15:18;98383.25;;;16.16;64.98
9822;BME280;4950;46.042;14.472;2023-05-19T13:17:45;98381.63;;;16.15;64.91